sensor_id;sensor_type;location;lat;lon;timestamp;P1;durP1;ratioP1;P2;durP2;ratioP2
18649;SDS011;9454;53.516;10.478;2022-09-04T00:00:59;4.00;;;0.60;;
18649;SDS011;9454;53.516;10.478;2022-09-04T00:04:08;2.08;;;0.70;;
18649;SDS011;9454;53.516;10.478;2022-09-04T00:07:15;1.15;;;0.50;;
18649;SDS011;9454;53.516;10.478;2022-09-04T00:10:21;1.92;;;0.52;;
18649;SDS011;9454;53.516;10.478;2022-09-04T00:13:30;1.10;;;0.60;;
18649;SDS011;9454;53.516;10.478;2022-09-04T00:16:36;0.63;;;0.55;;
18649;SDS011;9454;53.516;10.478;2022-09-04T00:19:46;1.45;;;0.65;;
18649;SDS011;9454;53.516;10.478;2022-09-04T00:22:51;0.98;;;0.60;;
18649;SDS011;9454;53.516;10.478;2022-09-04T00:26:00;1.48;;;0.80;;
18649;SDS011;9454;53.516;10.478;2022-09-04T00:29:09;5.97;;;0.65;;
18649;SDS011;9454;53.516;10.478;2022-09-04T00:32:18;1.38;;;0.70;;
18649;SDS011;9454;53.516;10.478;2022-09-04T00:35:27;0.73;;;0.60;;
18649;SDS011;9454;53.516;10.478;2022-09-04T00:38:34;0.73;;;0.50;;
18649;SDS011;9454;53.516;10.478;2022-09-04T00:41:42;1.50;;;0.60;;
18649;SDS011;9454;53.516;10.478;2022-09-04T00:44:59;0.55;;;0.50;;
18649;SDS011;9454;53.516;10.478;2022-09-04T00:48:08;0.80;;;0.45;;
18649;SDS011;9454;53.516;10.478;2022-09-04T00:51:17;0.98;;;0.52;;
18649;SDS011;9454;53.516;10.478;2022-09-04T00:54:30;2.00;;;0.70;;
18649;SDS011;9454;53.516;10.478;2022-09-04T00:57:46;0.63;;;0.63;;
18649;SDS011;9454;53.516;10.478;2022-09-04T01:00:52;0.80;;;0.40;;
18649;SDS011;9454;53.516;10.478;2022-09-04T01:04:14;0.65;;;0.47;;
18649;SDS011;9454;53.516;10.478;2022-09-04T01:07:26;1.02;;;0.60;;
18649;SDS011;9454;53.516;10.478;2022-09-04T01:10:37;2.47;;;0.70;;
18649;SDS011;9454;53.516;10.478;2022-09-04T01:13:42;3.25;;;0.80;;
18649;SDS011;9454;53.516;10.478;2022-09-04T01:16:47;1.67;;;0.65;;
18649;SDS011;9454;53.516;10.478;2022-09-04T01:19:54;0.68;;;0.60;;
18649;SDS011;9454;53.516;10.478;2022-09-04T01:23:06;2.05;;;0.60;;
18649;SDS011;9454;53.516;10.478;2022-09-04T01:26:14;1.35;;;0.60;;
18649;SDS011;9454;53.516;10.478;2022-09-04T01:29:32;0.60;;;0.55;;
18649;SDS011;9454;53.516;10.478;2022-09-04T01:32:41;5.07;;;0.52;;
18649;SDS011;9454;53.516;10.478;2022-09-04T01:35:48;0.93;;;0.60;;
18649;SDS011;9454;53.516;10.478;2022-09-04T01:38:56;2.15;;;0.90;;
18649;SDS011;9454;53.516;10.478;2022-09-04T01:42:02;3.53;;;0.70;;
18649;SDS011;9454;53.516;10.478;2022-09-04T01:45:06;1.80;;;0.80;;
18649;SDS011;9454;53.516;10.478;2022-09-04T01:48:10;1.33;;;0.60;;
18649;SDS011;9454;53.516;10.478;2022-09-04T01:51:17;1.95;;;0.77;;
18649;SDS011;9454;53.516;10.478;2022-09-04T01:54:27;1.10;;;0.60;;
18649;SDS011;9454;53.516;10.478;2022-09-04T01:57:40;1.33;;;0.60;;
18649;SDS011;9454;53.516;10.478;2022-09-04T02:00:49;5.70;;;0.73;;
18649;SDS011;9454;53.516;10.478;2022-09-04T02:03:59;1.08;;;0.50;;
18649;SDS011;9454;53.516;10.478;2022-09-04T02:07:07;0.55;;;0.55;;
18649;SDS011;9454;53.516;10.478;2022-09-04T02:10:16;1.52;;;0.77;;
18649;SDS011;9454;53.516;10.478;2022-09-04T02:13:27;1.42;;;0.82;;
18649;SDS011;9454;53.516;10.478;2022-09-04T02:16:38;2.30;;;0.60;;
18649;SDS011;9454;53.516;10.478;2022-09-04T02:20:00;2.72;;;0.55;;
18649;SDS011;9454;53.516;10.478;2022-09-04T02:23:07;1.08;;;0.70;;
18649;SDS011;9454;53.516;10.478;2022-09-04T02:26:13;1.90;;;0.75;;
18649;SDS011;9454;53.516;10.478;2022-09-04T02:29:28;1.95;;;0.90;;
18649;SDS011;9454;53.516;10.478;2022-09-04T02:32:34;0.82;;;0.60;;
18649;SDS011;9454;53.516;10.478;2022-09-04T02:35:42;1.67;;;0.68;;
18649;SDS011;9454;53.516;10.478;2022-09-04T02:38:49;1.13;;;0.50;;
18649;SDS011;9454;53.516;10.478;2022-09-04T02:41:56;0.82;;;0.63;;
18649;SDS011;9454;53.516;10.478;2022-09-04T02:45:08;0.70;;;0.60;;
18649;SDS011;9454;53.516;10.478;2022-09-04T02:48:16;3.00;;;0.77;;
18649;SDS011;9454;53.516;10.478;2022-09-04T02:51:22;1.40;;;0.70;;
18649;SDS011;9454;53.516;10.478;2022-09-04T02:54:37;1.42;;;0.77;;
18649;SDS011;9454;53.516;10.478;2022-09-04T02:57:45;6.63;;;0.90;;
18649;SDS011;9454;53.516;10.478;2022-09-04T03:00:59;2.80;;;1.08;;
18649;SDS011;9454;53.516;10.478;2022-09-04T03:04:08;0.63;;;0.60;;
18649;SDS011;9454;53.516;10.478;2022-09-04T03:07:12;0.93;;;0.60;;
18649;SDS011;9454;53.516;10.478;2022-09-04T03:10:16;2.75;;;0.60;;
18649;SDS011;9454;53.516;10.478;2022-09-04T03:13:20;1.42;;;0.68;;
18649;SDS011;9454;53.516;10.478;2022-09-04T03:16:31;1.45;;;0.65;;
18649;SDS011;9454;53.516;10.478;2022-09-04T03:19:36;0.60;;;0.50;;
18649;SDS011;9454;53.516;10.478;2022-09-04T03:22:44;1.75;;;0.73;;
18649;SDS011;9454;53.516;10.478;2022-09-04T03:25:55;4.22;;;0.80;;
18649;SDS011;9454;53.516;10.478;2022-09-04T03:37:47;4.53;;;1.00;;
18649;SDS011;9454;53.516;10.478;2022-09-04T03:41:06;0.90;;;0.68;;
18649;SDS011;9454;53.516;10.478;2022-09-04T04:00:09;5.72;;;0.68;;
18649;SDS011;9454;53.516;10.478;2022-09-04T04:03:19;1.50;;;0.68;;
18649;SDS011;9454;53.516;10.478;2022-09-04T04:06:29;2.05;;;0.80;;
18649;SDS011;9454;53.516;10.478;2022-09-04T04:09:44;1.05;;;0.63;;
18649;SDS011;9454;53.516;10.478;2022-09-04T04:12:55;1.52;;;0.68;;
18649;SDS011;9454;53.516;10.478;2022-09-04T04:16:14;1.98;;;0.65;;
18649;SDS011;9454;53.516;10.478;2022-09-04T04:19:27;3.08;;;0.90;;
18649;SDS011;9454;53.516;10.478;2022-09-04T04:22:47;1.35;;;0.75;;
18649;SDS011;9454;53.516;10.478;2022-09-04T04:25:56;6.97;;;0.80;;
18649;SDS011;9454;53.516;10.478;2022-09-04T04:32:36;5.15;;;0.90;;
18649;SDS011;9454;53.516;10.478;2022-09-04T04:35:46;2.47;;;0.70;;
18649;SDS011;9454;53.516;10.478;2022-09-04T04:38:55;0.85;;;0.52;;
18649;SDS011;9454;53.516;10.478;2022-09-04T04:42:04;1.65;;;0.65;;
18649;SDS011;9454;53.516;10.478;2022-09-04T04:45:12;0.95;;;0.80;;
18649;SDS011;9454;53.516;10.478;2022-09-04T04:51:57;1.42;;;0.70;;
18649;SDS011;9454;53.516;10.478;2022-09-04T04:55:09;1.25;;;0.85;;
18649;SDS011;9454;53.516;10.478;2022-09-04T05:01:39;1.60;;;0.80;;
18649;SDS011;9454;53.516;10.478;2022-09-04T05:04:44;6.35;;;0.90;;
18649;SDS011;9454;53.516;10.478;2022-09-04T05:07:55;1.00;;;0.65;;
18649;SDS011;9454;53.516;10.478;2022-09-04T05:11:09;1.38;;;0.70;;
18649;SDS011;9454;53.516;10.478;2022-09-04T05:14:18;4.30;;;0.98;;
18649;SDS011;9454;53.516;10.478;2022-09-04T05:17:30;0.77;;;0.70;;
18649;SDS011;9454;53.516;10.478;2022-09-04T05:20:41;2.50;;;0.77;;
18649;SDS011;9454;53.516;10.478;2022-09-04T05:23:48;3.90;;;0.75;;
18649;SDS011;9454;53.516;10.478;2022-09-04T05:26:53;2.08;;;0.90;;
18649;SDS011;9454;53.516;10.478;2022-09-04T05:30:00;2.00;;;0.88;;
18649;SDS011;9454;53.516;10.478;2022-09-04T05:33:07;1.50;;;0.75;;
18649;SDS011;9454;53.516;10.478;2022-09-04T05:36:15;2.55;;;0.70;;
18649;SDS011;9454;53.516;10.478;2022-09-04T05:39:23;2.15;;;0.95;;
18649;SDS011;9454;53.516;10.478;2022-09-04T05:42:47;0.95;;;0.80;;
18649;SDS011;9454;53.516;10.478;2022-09-04T05:45:56;0.63;;;0.57;;
18649;SDS011;9454;53.516;10.478;2022-09-04T05:49:01;4.82;;;1.10;;
18649;SDS011;9454;53.516;10.478;2022-09-04T05:52:10;1.85;;;0.80;;
18649;SDS011;9454;53.516;10.478;2022-09-04T05:58:51;1.95;;;0.90;;
18649;SDS011;9454;53.516;10.478;2022-09-04T06:05:17;1.67;;;0.60;;
18649;SDS011;9454;53.516;10.478;2022-09-04T06:08:30;3.28;;;0.70;;
18649;SDS011;9454;53.516;10.478;2022-09-04T06:11:42;1.08;;;0.75;;
18649;SDS011;9454;53.516;10.478;2022-09-04T06:15:05;0.82;;;0.80;;
18649;SDS011;9454;53.516;10.478;2022-09-04T06:18:17;1.20;;;0.90;;
18649;SDS011;9454;53.516;10.478;2022-09-04T06:24:56;1.52;;;0.77;;
18649;SDS011;9454;53.516;10.478;2022-09-04T06:28:15;6.50;;;0.85;;
18649;SDS011;9454;53.516;10.478;2022-09-04T06:31:31;1.17;;;0.80;;
18649;SDS011;9454;53.516;10.478;2022-09-04T06:34:52;3.65;;;0.82;;
18649;SDS011;9454;53.516;10.478;2022-09-04T06:38:03;3.03;;;0.70;;
18649;SDS011;9454;53.516;10.478;2022-09-04T06:41:19;5.25;;;0.90;;
18649;SDS011;9454;53.516;10.478;2022-09-04T06:44:25;3.60;;;0.90;;
18649;SDS011;9454;53.516;10.478;2022-09-04T06:47:34;3.70;;;1.05;;
18649;SDS011;9454;53.516;10.478;2022-09-04T06:50:44;1.20;;;0.77;;
18649;SDS011;9454;53.516;10.478;2022-09-04T06:53:49;4.95;;;0.70;;
18649;SDS011;9454;53.516;10.478;2022-09-04T06:57:03;1.25;;;0.77;;
18649;SDS011;9454;53.516;10.478;2022-09-04T07:00:08;1.05;;;0.80;;
18649;SDS011;9454;53.516;10.478;2022-09-04T07:03:17;3.30;;;0.90;;
18649;SDS011;9454;53.516;10.478;2022-09-04T07:06:23;2.40;;;0.82;;
18649;SDS011;9454;53.516;10.478;2022-09-04T07:09:29;1.75;;;1.00;;
18649;SDS011;9454;53.516;10.478;2022-09-04T07:12:50;3.00;;;1.25;;
18649;SDS011;9454;53.516;10.478;2022-09-04T07:19:29;3.90;;;1.10;;
18649;SDS011;9454;53.516;10.478;2022-09-04T07:22:44;1.20;;;0.82;;
18649;SDS011;9454;53.516;10.478;2022-09-04T07:25:52;2.05;;;1.40;;
18649;SDS011;9454;53.516;10.478;2022-09-04T07:29:04;1.88;;;1.00;;
18649;SDS011;9454;53.516;10.478;2022-09-04T07:32:11;1.38;;;1.13;;
18649;SDS011;9454;53.516;10.478;2022-09-04T07:35:27;3.08;;;1.00;;
18649;SDS011;9454;53.516;10.478;2022-09-04T07:38:33;2.65;;;1.20;;
18649;SDS011;9454;53.516;10.478;2022-09-04T07:41:41;3.75;;;1.30;;
18649;SDS011;9454;53.516;10.478;2022-09-04T07:44:46;2.65;;;0.90;;
18649;SDS011;9454;53.516;10.478;2022-09-04T07:47:52;2.50;;;1.08;;
18649;SDS011;9454;53.516;10.478;2022-09-04T07:51:02;3.00;;;1.23;;
18649;SDS011;9454;53.516;10.478;2022-09-04T07:54:14;5.30;;;1.02;;
18649;SDS011;9454;53.516;10.478;2022-09-04T07:57:28;2.33;;;1.23;;
18649;SDS011;9454;53.516;10.478;2022-09-04T08:00:36;3.25;;;1.42;;
18649;SDS011;9454;53.516;10.478;2022-09-04T08:07:04;2.33;;;1.30;;
18649;SDS011;9454;53.516;10.478;2022-09-04T08:10:13;1.60;;;1.15;;
18649;SDS011;9454;53.516;10.478;2022-09-04T08:13:21;3.20;;;1.45;;
18649;SDS011;9454;53.516;10.478;2022-09-04T08:16:29;1.50;;;1.10;;
18649;SDS011;9454;53.516;10.478;2022-09-04T08:19:38;1.30;;;1.13;;
18649;SDS011;9454;53.516;10.478;2022-09-04T08:22:46;1.63;;;1.20;;
18649;SDS011;9454;53.516;10.478;2022-09-04T08:25:53;3.53;;;1.70;;
18649;SDS011;9454;53.516;10.478;2022-09-04T08:29:11;7.65;;;1.60;;
18649;SDS011;9454;53.516;10.478;2022-09-04T08:32:21;4.28;;;1.35;;
18649;SDS011;9454;53.516;10.478;2022-09-04T08:35:38;1.70;;;1.40;;
18649;SDS011;9454;53.516;10.478;2022-09-04T08:38:52;2.28;;;1.25;;
18649;SDS011;9454;53.516;10.478;2022-09-04T08:45:28;3.05;;;1.63;;
18649;SDS011;9454;53.516;10.478;2022-09-04T08:48:57;2.85;;;1.63;;
18649;SDS011;9454;53.516;10.478;2022-09-04T08:52:11;3.50;;;1.50;;
18649;SDS011;9454;53.516;10.478;2022-09-04T08:55:26;2.13;;;1.40;;
18649;SDS011;9454;53.516;10.478;2022-09-04T09:02:07;1.45;;;1.23;;
18649;SDS011;9454;53.516;10.478;2022-09-04T09:05:23;1.63;;;1.42;;
18649;SDS011;9454;53.516;10.478;2022-09-04T09:08:53;3.45;;;1.42;;
18649;SDS011;9454;53.516;10.478;2022-09-04T09:12:29;1.92;;;1.45;;
18649;SDS011;9454;53.516;10.478;2022-09-04T09:15:50;2.78;;;1.10;;
18649;SDS011;9454;53.516;10.478;2022-09-04T09:19:10;3.08;;;1.52;;
18649;SDS011;9454;53.516;10.478;2022-09-04T09:22:28;2.00;;;1.38;;
18649;SDS011;9454;53.516;10.478;2022-09-04T09:25:38;2.22;;;1.50;;
18649;SDS011;9454;53.516;10.478;2022-09-04T09:35:52;3.10;;;1.40;;
18649;SDS011;9454;53.516;10.478;2022-09-04T09:39:15;2.35;;;1.40;;
18649;SDS011;9454;53.516;10.478;2022-09-04T09:46:07;2.75;;;1.67;;
18649;SDS011;9454;53.516;10.478;2022-09-04T09:49:30;1.50;;;1.20;;
18649;SDS011;9454;53.516;10.478;2022-09-04T09:52:44;1.90;;;1.27;;
18649;SDS011;9454;53.516;10.478;2022-09-04T09:59:25;2.33;;;1.30;;
18649;SDS011;9454;53.516;10.478;2022-09-04T10:02:44;2.60;;;1.30;;
18649;SDS011;9454;53.516;10.478;2022-09-04T10:05:58;2.22;;;1.38;;
18649;SDS011;9454;53.516;10.478;2022-09-04T10:09:09;4.00;;;1.52;;
18649;SDS011;9454;53.516;10.478;2022-09-04T10:12:26;1.65;;;1.30;;
18649;SDS011;9454;53.516;10.478;2022-09-04T10:15:37;2.65;;;1.33;;
18649;SDS011;9454;53.516;10.478;2022-09-04T10:39:21;2.50;;;1.70;;
18649;SDS011;9454;53.516;10.478;2022-09-04T10:42:54;1.70;;;1.33;;
18649;SDS011;9454;53.516;10.478;2022-09-04T10:51:05;3.40;;;1.58;;
18649;SDS011;9454;53.516;10.478;2022-09-04T10:59:27;2.20;;;1.42;;
18649;SDS011;9454;53.516;10.478;2022-09-04T11:06:30;3.97;;;1.60;;
18649;SDS011;9454;53.516;10.478;2022-09-04T11:09:55;2.47;;;1.65;;
18649;SDS011;9454;53.516;10.478;2022-09-04T11:13:07;1.55;;;1.15;;
18649;SDS011;9454;53.516;10.478;2022-09-04T11:19:41;7.32;;;1.70;;
18649;SDS011;9454;53.516;10.478;2022-09-04T11:23:00;2.70;;;1.50;;
18649;SDS011;9454;53.516;10.478;2022-09-04T11:33:06;4.07;;;1.52;;
18649;SDS011;9454;53.516;10.478;2022-09-04T11:43:00;3.65;;;2.20;;
18649;SDS011;9454;53.516;10.478;2022-09-04T11:46:15;3.45;;;1.63;;
18649;SDS011;9454;53.516;10.478;2022-09-04T11:49:36;3.00;;;1.73;;
18649;SDS011;9454;53.516;10.478;2022-09-04T11:52:47;2.95;;;1.90;;
18649;SDS011;9454;53.516;10.478;2022-09-04T11:56:02;4.60;;;1.60;;
18649;SDS011;9454;53.516;10.478;2022-09-04T11:59:58;2.65;;;1.95;;
18649;SDS011;9454;53.516;10.478;2022-09-04T12:03:19;4.65;;;1.40;;
18649;SDS011;9454;53.516;10.478;2022-09-04T12:06:35;5.43;;;1.80;;
18649;SDS011;9454;53.516;10.478;2022-09-04T12:13:02;2.42;;;1.60;;
18649;SDS011;9454;53.516;10.478;2022-09-04T12:20:08;4.97;;;1.77;;
18649;SDS011;9454;53.516;10.478;2022-09-04T12:23:20;3.15;;;1.80;;
18649;SDS011;9454;53.516;10.478;2022-09-04T12:26:36;1.92;;;1.40;;
18649;SDS011;9454;53.516;10.478;2022-09-04T12:33:29;3.92;;;1.73;;
18649;SDS011;9454;53.516;10.478;2022-09-04T12:40:08;6.03;;;1.40;;
18649;SDS011;9454;53.516;10.478;2022-09-04T12:43:20;4.28;;;1.23;;
18649;SDS011;9454;53.516;10.478;2022-09-04T12:54:39;2.80;;;1.40;;
18649;SDS011;9454;53.516;10.478;2022-09-04T12:58:08;2.17;;;1.48;;
18649;SDS011;9454;53.516;10.478;2022-09-04T13:01:15;2.28;;;1.38;;
18649;SDS011;9454;53.516;10.478;2022-09-04T13:04:25;2.67;;;1.40;;
18649;SDS011;9454;53.516;10.478;2022-09-04T13:07:36;2.20;;;1.42;;
18649;SDS011;9454;53.516;10.478;2022-09-04T13:10:42;2.63;;;1.30;;
18649;SDS011;9454;53.516;10.478;2022-09-04T13:13:52;4.40;;;1.50;;
18649;SDS011;9454;53.516;10.478;2022-09-04T13:17:01;2.40;;;1.45;;
18649;SDS011;9454;53.516;10.478;2022-09-04T13:20:07;1.88;;;1.13;;
18649;SDS011;9454;53.516;10.478;2022-09-04T13:23:19;3.42;;;1.60;;
18649;SDS011;9454;53.516;10.478;2022-09-04T13:26:40;2.67;;;1.23;;
18649;SDS011;9454;53.516;10.478;2022-09-04T13:29:51;5.97;;;1.42;;
18649;SDS011;9454;53.516;10.478;2022-09-04T13:36:24;4.50;;;1.45;;
18649;SDS011;9454;53.516;10.478;2022-09-04T13:39:31;2.67;;;1.48;;
18649;SDS011;9454;53.516;10.478;2022-09-04T13:42:50;4.28;;;1.38;;
18649;SDS011;9454;53.516;10.478;2022-09-04T13:45:56;1.55;;;1.40;;
18649;SDS011;9454;53.516;10.478;2022-09-04T13:49:00;3.28;;;1.35;;
18649;SDS011;9454;53.516;10.478;2022-09-04T13:52:07;2.78;;;1.50;;
18649;SDS011;9454;53.516;10.478;2022-09-04T13:55:13;3.58;;;1.08;;
18649;SDS011;9454;53.516;10.478;2022-09-04T13:58:19;2.40;;;1.98;;
18649;SDS011;9454;53.516;10.478;2022-09-04T14:01:24;1.90;;;1.10;;
18649;SDS011;9454;53.516;10.478;2022-09-04T14:04:32;1.38;;;1.05;;
18649;SDS011;9454;53.516;10.478;2022-09-04T14:07:37;5.65;;;1.42;;
18649;SDS011;9454;53.516;10.478;2022-09-04T14:10:55;2.15;;;1.60;;
18649;SDS011;9454;53.516;10.478;2022-09-04T14:14:10;1.55;;;1.30;;
18649;SDS011;9454;53.516;10.478;2022-09-04T14:17:17;1.73;;;1.30;;
18649;SDS011;9454;53.516;10.478;2022-09-04T14:20:27;1.45;;;1.10;;
18649;SDS011;9454;53.516;10.478;2022-09-04T14:23:37;2.97;;;1.35;;
18649;SDS011;9454;53.516;10.478;2022-09-04T14:26:43;1.60;;;1.10;;
18649;SDS011;9454;53.516;10.478;2022-09-04T14:29:56;1.48;;;1.20;;
18649;SDS011;9454;53.516;10.478;2022-09-04T14:33:07;1.60;;;1.15;;
18649;SDS011;9454;53.516;10.478;2022-09-04T14:36:24;3.65;;;1.40;;
18649;SDS011;9454;53.516;10.478;2022-09-04T14:39:29;2.72;;;1.60;;
18649;SDS011;9454;53.516;10.478;2022-09-04T14:42:42;1.60;;;1.25;;
18649;SDS011;9454;53.516;10.478;2022-09-04T14:45:53;1.80;;;1.13;;
18649;SDS011;9454;53.516;10.478;2022-09-04T14:49:09;2.05;;;1.13;;
18649;SDS011;9454;53.516;10.478;2022-09-04T14:52:15;1.38;;;1.20;;
18649;SDS011;9454;53.516;10.478;2022-09-04T14:55:37;3.70;;;1.00;;
18649;SDS011;9454;53.516;10.478;2022-09-04T14:59:32;1.55;;;1.20;;
18649;SDS011;9454;53.516;10.478;2022-09-04T15:02:39;2.15;;;1.27;;
18649;SDS011;9454;53.516;10.478;2022-09-04T15:05:45;1.77;;;1.17;;
18649;SDS011;9454;53.516;10.478;2022-09-04T15:09:11;5.38;;;1.20;;
18649;SDS011;9454;53.516;10.478;2022-09-04T15:12:19;2.38;;;1.05;;
18649;SDS011;9454;53.516;10.478;2022-09-04T15:15:30;2.38;;;1.10;;
18649;SDS011;9454;53.516;10.478;2022-09-04T15:18:35;2.25;;;1.20;;
18649;SDS011;9454;53.516;10.478;2022-09-04T15:21:46;3.15;;;1.30;;
18649;SDS011;9454;53.516;10.478;2022-09-04T15:24:53;2.83;;;1.33;;
18649;SDS011;9454;53.516;10.478;2022-09-04T15:27:59;1.42;;;1.17;;
18649;SDS011;9454;53.516;10.478;2022-09-04T15:31:05;1.63;;;1.10;;
18649;SDS011;9454;53.516;10.478;2022-09-04T15:34:18;5.55;;;1.20;;
18649;SDS011;9454;53.516;10.478;2022-09-04T15:37:24;2.05;;;1.27;;
18649;SDS011;9454;53.516;10.478;2022-09-04T15:40:29;1.15;;;0.90;;
18649;SDS011;9454;53.516;10.478;2022-09-04T15:43:33;2.35;;;1.10;;
18649;SDS011;9454;53.516;10.478;2022-09-04T15:46:41;1.88;;;1.40;;
18649;SDS011;9454;53.516;10.478;2022-09-04T15:49:51;1.55;;;0.98;;
18649;SDS011;9454;53.516;10.478;2022-09-04T15:52:57;7.90;;;2.70;;
18649;SDS011;9454;53.516;10.478;2022-09-04T15:56:04;1.35;;;1.17;;
18649;SDS011;9454;53.516;10.478;2022-09-04T15:59:11;1.40;;;1.17;;
18649;SDS011;9454;53.516;10.478;2022-09-04T16:02:18;3.13;;;1.10;;
18649;SDS011;9454;53.516;10.478;2022-09-04T16:05:22;1.90;;;1.15;;
18649;SDS011;9454;53.516;10.478;2022-09-04T16:08:31;3.08;;;1.10;;
18649;SDS011;9454;53.516;10.478;2022-09-04T16:11:41;2.80;;;1.52;;
18649;SDS011;9454;53.516;10.478;2022-09-04T16:14:47;4.55;;;1.33;;
18649;SDS011;9454;53.516;10.478;2022-09-04T16:17:51;2.40;;;1.30;;
18649;SDS011;9454;53.516;10.478;2022-09-04T16:20:55;1.92;;;1.20;;
18649;SDS011;9454;53.516;10.478;2022-09-04T16:24:05;2.63;;;1.13;;
18649;SDS011;9454;53.516;10.478;2022-09-04T16:27:10;3.05;;;1.02;;
18649;SDS011;9454;53.516;10.478;2022-09-04T16:30:25;3.33;;;1.42;;
18649;SDS011;9454;53.516;10.478;2022-09-04T16:33:31;2.83;;;1.25;;
18649;SDS011;9454;53.516;10.478;2022-09-04T16:36:36;4.63;;;1.50;;
18649;SDS011;9454;53.516;10.478;2022-09-04T16:39:45;3.83;;;1.48;;
18649;SDS011;9454;53.516;10.478;2022-09-04T16:42:50;3.00;;;1.55;;
18649;SDS011;9454;53.516;10.478;2022-09-04T16:55:06;2.72;;;1.33;;
18649;SDS011;9454;53.516;10.478;2022-09-04T16:58:15;1.77;;;1.27;;
18649;SDS011;9454;53.516;10.478;2022-09-04T17:01:21;3.63;;;1.65;;
18649;SDS011;9454;53.516;10.478;2022-09-04T17:04:29;2.33;;;1.50;;
18649;SDS011;9454;53.516;10.478;2022-09-04T17:07:50;2.60;;;1.38;;
18649;SDS011;9454;53.516;10.478;2022-09-04T17:11:03;4.47;;;1.25;;
18649;SDS011;9454;53.516;10.478;2022-09-04T17:14:13;10.93;;;1.60;;
18649;SDS011;9454;53.516;10.478;2022-09-04T17:17:17;4.63;;;1.70;;
18649;SDS011;9454;53.516;10.478;2022-09-04T17:20:32;4.15;;;1.77;;
18649;SDS011;9454;53.516;10.478;2022-09-04T17:24:28;2.17;;;1.45;;
18649;SDS011;9454;53.516;10.478;2022-09-04T17:27:56;3.63;;;1.65;;
18649;SDS011;9454;53.516;10.478;2022-09-04T17:31:24;4.07;;;1.80;;
18649;SDS011;9454;53.516;10.478;2022-09-04T17:34:47;5.18;;;1.90;;
18649;SDS011;9454;53.516;10.478;2022-09-04T17:38:14;7.97;;;2.00;;
18649;SDS011;9454;53.516;10.478;2022-09-04T17:41:42;3.13;;;1.80;;
18649;SDS011;9454;53.516;10.478;2022-09-04T17:45:09;3.80;;;2.25;;
18649;SDS011;9454;53.516;10.478;2022-09-04T17:48:17;5.22;;;2.22;;
18649;SDS011;9454;53.516;10.478;2022-09-04T17:51:21;5.03;;;2.55;;
18649;SDS011;9454;53.516;10.478;2022-09-04T17:54:25;4.28;;;1.77;;
18649;SDS011;9454;53.516;10.478;2022-09-04T17:57:31;3.17;;;1.92;;
18649;SDS011;9454;53.516;10.478;2022-09-04T18:00:48;2.28;;;1.60;;
18649;SDS011;9454;53.516;10.478;2022-09-04T18:03:58;3.20;;;1.73;;
18649;SDS011;9454;53.516;10.478;2022-09-04T18:07:24;3.10;;;1.60;;
18649;SDS011;9454;53.516;10.478;2022-09-04T18:10:51;5.18;;;1.98;;
18649;SDS011;9454;53.516;10.478;2022-09-04T18:13:56;3.38;;;1.85;;
18649;SDS011;9454;53.516;10.478;2022-09-04T18:17:05;5.25;;;1.80;;
18649;SDS011;9454;53.516;10.478;2022-09-04T18:20:14;2.47;;;1.70;;
18649;SDS011;9454;53.516;10.478;2022-09-04T18:23:20;4.05;;;1.67;;
18649;SDS011;9454;53.516;10.478;2022-09-04T18:26:24;3.15;;;1.83;;
18649;SDS011;9454;53.516;10.478;2022-09-04T18:29:49;2.85;;;1.67;;
18649;SDS011;9454;53.516;10.478;2022-09-04T18:33:16;2.33;;;1.63;;
18649;SDS011;9454;53.516;10.478;2022-09-04T18:36:42;6.25;;;1.55;;
18649;SDS011;9454;53.516;10.478;2022-09-04T18:40:06;2.85;;;1.40;;
18649;SDS011;9454;53.516;10.478;2022-09-04T18:43:13;5.10;;;1.58;;
18649;SDS011;9454;53.516;10.478;2022-09-04T18:46:37;6.75;;;1.90;;
18649;SDS011;9454;53.516;10.478;2022-09-04T18:50:01;4.43;;;1.90;;
18649;SDS011;9454;53.516;10.478;2022-09-04T18:53:25;7.50;;;1.95;;
18649;SDS011;9454;53.516;10.478;2022-09-04T18:56:29;5.45;;;1.67;;
18649;SDS011;9454;53.516;10.478;2022-09-04T18:59:34;5.32;;;1.95;;
18649;SDS011;9454;53.516;10.478;2022-09-04T19:02:42;5.07;;;1.98;;
18649;SDS011;9454;53.516;10.478;2022-09-04T19:05:55;2.47;;;1.55;;
18649;SDS011;9454;53.516;10.478;2022-09-04T19:09:01;6.60;;;2.08;;
18649;SDS011;9454;53.516;10.478;2022-09-04T19:12:09;3.38;;;2.00;;
18649;SDS011;9454;53.516;10.478;2022-09-04T19:15:24;5.85;;;2.10;;
18649;SDS011;9454;53.516;10.478;2022-09-04T19:18:43;3.33;;;1.83;;
18649;SDS011;9454;53.516;10.478;2022-09-04T19:21:49;3.38;;;1.80;;
18649;SDS011;9454;53.516;10.478;2022-09-04T19:25:01;2.72;;;1.50;;
18649;SDS011;9454;53.516;10.478;2022-09-04T19:28:06;5.57;;;2.05;;
18649;SDS011;9454;53.516;10.478;2022-09-04T19:31:14;5.18;;;2.10;;
18649;SDS011;9454;53.516;10.478;2022-09-04T19:34:18;2.90;;;1.83;;
18649;SDS011;9454;53.516;10.478;2022-09-04T19:37:24;5.50;;;2.20;;
18649;SDS011;9454;53.516;10.478;2022-09-04T19:40:48;4.13;;;1.75;;
18649;SDS011;9454;53.516;10.478;2022-09-04T19:44:12;1.80;;;1.45;;
18649;SDS011;9454;53.516;10.478;2022-09-04T19:47:50;4.28;;;1.92;;
18649;SDS011;9454;53.516;10.478;2022-09-04T19:50:55;2.95;;;1.70;;
18649;SDS011;9454;53.516;10.478;2022-09-04T19:54:28;3.38;;;1.73;;
18649;SDS011;9454;53.516;10.478;2022-09-04T19:57:31;3.13;;;1.60;;
18649;SDS011;9454;53.516;10.478;2022-09-04T20:00:40;2.22;;;1.50;;
18649;SDS011;9454;53.516;10.478;2022-09-04T20:07:19;5.05;;;1.95;;
18649;SDS011;9454;53.516;10.478;2022-09-04T20:10:30;9.95;;;2.42;;
18649;SDS011;9454;53.516;10.478;2022-09-04T20:13:37;4.13;;;1.85;;
18649;SDS011;9454;53.516;10.478;2022-09-04T20:16:44;3.53;;;1.73;;
18649;SDS011;9454;53.516;10.478;2022-09-04T20:19:50;5.53;;;1.95;;
18649;SDS011;9454;53.516;10.478;2022-09-04T20:22:55;7.63;;;1.73;;
18649;SDS011;9454;53.516;10.478;2022-09-04T20:26:02;3.25;;;2.10;;
18649;SDS011;9454;53.516;10.478;2022-09-04T20:29:07;6.22;;;2.00;;
18649;SDS011;9454;53.516;10.478;2022-09-04T20:32:13;3.45;;;1.88;;
18649;SDS011;9454;53.516;10.478;2022-09-04T20:35:17;4.07;;;1.88;;
18649;SDS011;9454;53.516;10.478;2022-09-04T20:38:36;3.72;;;1.88;;
18649;SDS011;9454;53.516;10.478;2022-09-04T20:41:45;6.43;;;1.50;;
18649;SDS011;9454;53.516;10.478;2022-09-04T20:44:50;3.65;;;1.75;;
18649;SDS011;9454;53.516;10.478;2022-09-04T20:48:18;10.27;;;1.85;;
18649;SDS011;9454;53.516;10.478;2022-09-04T20:51:47;3.30;;;1.55;;
18649;SDS011;9454;53.516;10.478;2022-09-04T20:55:15;3.28;;;1.67;;
18649;SDS011;9454;53.516;10.478;2022-09-04T21:02:13;2.20;;;1.42;;
18649;SDS011;9454;53.516;10.478;2022-09-04T21:06:32;4.88;;;1.65;;
18649;SDS011;9454;53.516;10.478;2022-09-04T21:09:40;6.53;;;1.52;;
18649;SDS011;9454;53.516;10.478;2022-09-04T21:12:59;3.55;;;1.30;;
18649;SDS011;9454;53.516;10.478;2022-09-04T21:16:19;6.85;;;1.40;;
18649;SDS011;9454;53.516;10.478;2022-09-04T21:19:29;10.15;;;1.50;;
18649;SDS011;9454;53.516;10.478;2022-09-04T21:22:38;1.88;;;1.42;;
18649;SDS011;9454;53.516;10.478;2022-09-04T21:26:03;5.82;;;1.40;;
18649;SDS011;9454;53.516;10.478;2022-09-04T21:30:07;4.45;;;2.42;;
18649;SDS011;9454;53.516;10.478;2022-09-04T21:33:10;2.72;;;1.20;;
18649;SDS011;9454;53.516;10.478;2022-09-04T21:36:37;2.08;;;1.30;;
18649;SDS011;9454;53.516;10.478;2022-09-04T21:39:48;1.88;;;1.55;;
18649;SDS011;9454;53.516;10.478;2022-09-04T21:43:05;2.50;;;1.38;;
18649;SDS011;9454;53.516;10.478;2022-09-04T21:46:18;2.40;;;1.10;;
18649;SDS011;9454;53.516;10.478;2022-09-04T21:49:36;3.25;;;1.20;;
18649;SDS011;9454;53.516;10.478;2022-09-04T21:56:08;2.80;;;1.30;;
18649;SDS011;9454;53.516;10.478;2022-09-04T22:03:17;3.10;;;1.00;;
18649;SDS011;9454;53.516;10.478;2022-09-04T22:06:26;2.90;;;1.20;;
18649;SDS011;9454;53.516;10.478;2022-09-04T22:10:00;2.78;;;1.00;;
18649;SDS011;9454;53.516;10.478;2022-09-04T22:13:28;4.60;;;1.23;;